Time;durP1;ratioP1;P1;durP2;ratioP2;P2;SDS_P1;SDS_P2;PMS_P1;PMS_P2;Temp;Humidity;BMP_temperature;BMP_pressure;BME280_temperature;BME280_humidity;BME280_pressure;Samples;Min_cycle;Max_cycle;Signal;HPM_P1;HPM_P2
2023/04/06 00:00:21;;;;;;;;;;;20.30;41.00;;;;;;1546980;75;763;-64
2023/04/06 00:02:23;;;;;;;;;;;20.20;40.90;;;;;;1545947;75;774;-64
2023/04/06 00:04:25;;;;;;;;;;;20.30;41.00;;;;;;1555108;75;1149;-65
2023/04/06 00:06:27;;;;;;;;;;;20.30;41.00;;;;;;1557053;75;708;-64
2023/04/06 00:08:29;;;;;;;;;;;20.20;40.90;;;;;;1558404;75;709;-66
2023/04/06 00:10:31;;;;;;;;;;;20.20;40.90;;;;;;1564850;75;1553;-64
2023/04/06 00:12:33;;;;;;;;;;;20.20;41.00;;;;;;1543976;75;1928;-65
2023/04/06 00:14:35;;;;;;;;;;;20.20;40.90;;;;;;1550696;75;1152;-64
2023/04/06 00:16:36;;;;;;;;;;;20.20;40.90;;;;;;1550931;75;729;-65
2023/04/06 00:18:38;;;;;;;;;;;20.20;40.90;;;;;;1534763;75;724;-64
2023/04/06 00:20:40;;;;;;;;;;;20.20;40.90;;;;;;1541020;75;740;-64
2023/04/06 00:22:42;;;;;;;;;;;20.20;40.90;;;;;;1553887;75;722;-64
2023/04/06 00:24:44;;;;;;;;;;;20.20;40.80;;;;;;1552264;75;1520;-65
2023/04/06 00:26:46;;;;;;;;;;;20.30;41.00;;;;;;1561961;75;711;-64
2023/04/06 00:28:50;;;;;;;;;;;20.20;40.90;;;;;;1559235;75;812;-64
2023/04/06 00:30:52;;;;;;;;;;;20.20;40.80;;;;;;1552803;75;811;-64
2023/04/06 00:32:54;;;;;;;;;;;20.30;41.00;;;;;;1547125;75;1900;-64
2023/04/06 00:34:56;;;;;;;;;;;20.20;40.90;;;;;;1551172;76;1124;-66
2023/04/06 00:36:58;;;;;;;;;;;20.20;40.90;;;;;;1545211;75;689;-64
2023/04/06 00:39:00;;;;;;;;;;;20.20;41.00;;;;;;1561288;75;1554;-65
2023/04/06 00:41:03;;;;;;;;;;;20.20;40.90;;;;;;1554394;75;798;-65
2023/04/06 00:43:05;;;;;;;;;;;20.20;40.90;;;;;;1543617;75;1142;-65
2023/04/06 00:45:07;;;;;;;;;;;20.20;41.00;;;;;;1543071;75;729;-64
2023/04/06 00:47:09;;;;;;;;;;;20.20;40.90;;;;;;1553525;75;714;-64
2023/04/06 00:49:11;;;;;;;;;;;20.20;40.90;;;;;;1557823;75;734;-65
2023/04/06 00:51:13;;;;;;;;;;;20.20;40.90;;;;;;1550364;75;687;-64
2023/04/06 00:53:15;;;;;;;;;;;20.20;40.90;;;;;;1557257;75;1950;-65
2023/04/06 00:55:17;;;;;;;;;;;20.20;40.90;;;;;;1547826;75;706;-65
2023/04/06 00:57:19;;;;;;;;;;;20.20;40.90;;;;;;1560427;75;686;-64
2023/04/06 00:59:21;;;;;;;;;;;20.20;40.90;;;;;;1555502;75;746;-65
2023/04/06 01:01:23;;;;;;;;;;;20.20;40.90;;;;;;1522767;76;657;-64
2023/04/06 01:03:25;;;;;;;;;;;20.20;40.90;;;;;;1547455;75;1127;-64
2023/04/06 01:05:27;;;;;;;;;;;20.20;40.90;;;;;;1551338;75;799;-64
2023/04/06 01:07:29;;;;;;;;;;;20.20;40.90;;;;;;1550032;75;1562;-64
2023/04/06 01:09:31;;;;;;;;;;;20.20;40.90;;;;;;1561055;75;750;-64
2023/04/06 01:11:33;;;;;;;;;;;20.20;40.90;;;;;;1559589;75;720;-66
2023/04/06 01:13:35;;;;;;;;;;;20.20;40.90;;;;;;1557042;75;1946;-65
2023/04/06 01:15:38;;;;;;;;;;;20.20;40.90;;;;;;1546356;75;786;-66
2023/04/06 01:17:40;;;;;;;;;;;20.20;40.90;;;;;;1549200;75;1502;-65
2023/04/06 01:19:42;;;;;;;;;;;20.20;40.90;;;;;;1553321;75;706;-64
2023/04/06 01:21:44;;;;;;;;;;;20.20;41.00;;;;;;1552473;75;1610;-65
2023/04/06 01:23:46;;;;;;;;;;;20.10;40.90;;;;;;1533737;75;1142;-66
2023/04/06 01:25:48;;;;;;;;;;;20.10;41.00;;;;;;1563043;76;728;-69
2023/04/06 01:27:50;;;;;;;;;;;20.20;41.00;;;;;;1563977;75;804;-68
2023/04/06 01:29:52;;;;;;;;;;;20.20;41.00;;;;;;1539232;75;786;-65
2023/04/06 01:31:54;;;;;;;;;;;20.20;41.00;;;;;;1549129;75;754;-65
2023/04/06 01:33:56;;;;;;;;;;;20.20;41.00;;;;;;1556140;75;1930;-65
2023/04/06 01:35:57;;;;;;;;;;;20.20;41.00;;;;;;1559641;75;1530;-64
2023/04/06 01:38:00;;;;;;;;;;;20.10;40.90;;;;;;1553283;75;723;-64
2023/04/06 01:40:02;;;;;;;;;;;20.20;40.90;;;;;;1552620;75;683;-65
2023/04/06 01:42:03;;;;;;;;;;;20.20;40.90;;;;;;1561002;75;744;-65
2023/04/06 01:44:05;;;;;;;;;;;20.10;41.00;;;;;;1531960;75;1138;-66
2023/04/06 01:46:07;;;;;;;;;;;20.20;40.90;;;;;;1540912;75;743;-64
2023/04/06 01:48:09;;;;;;;;;;;20.20;41.00;;;;;;1557266;75;708;-65
2023/04/06 01:50:11;;;;;;;;;;;20.20;41.00;;;;;;1562761;75;1551;-65
2023/04/06 01:52:13;;;;;;;;;;;20.20;41.00;;;;;;1561968;76;715;-69
2023/04/06 01:54:15;;;;;;;;;;;20.10;41.00;;;;;;1551340;75;1915;-64
2023/04/06 01:56:17;;;;;;;;;;;20.10;41.00;;;;;;1558595;75;724;-65
2023/04/06 01:58:19;;;;;;;;;;;20.20;40.90;;;;;;1555185;75;747;-64
2023/04/06 02:00:22;;;;;;;;;;;20.10;40.90;;;;;;1555039;75;699;-64
2023/04/06 02:02:24;;;;;;;;;;;20.20;40.90;;;;;;1550256;75;729;-65
2023/04/06 02:04:26;;;;;;;;;;;20.10;41.00;;;;;;1554039;75;1545;-64
2023/04/06 02:06:27;;;;;;;;;;;20.10;40.90;;;;;;1548874;75;960;-65
2023/04/06 02:08:29;;;;;;;;;;;20.20;40.90;;;;;;1547835;75;728;-64
2023/04/06 02:10:32;;;;;;;;;;;20.20;40.90;;;;;;1562221;75;705;-65
2023/04/06 02:12:34;;;;;;;;;;;20.10;40.90;;;;;;1559730;75;744;-65
2023/04/06 02:14:35;;;;;;;;;;;20.20;40.90;;;;;;1551845;75;1914;-68
2023/04/06 02:16:38;;;;;;;;;;;20.20;40.90;;;;;;1546608;75;728;-65
2023/04/06 02:18:39;;;;;;;;;;;20.20;41.00;;;;;;1537543;75;1350;-66
2023/04/06 02:20:42;;;;;;;;;;;20.10;40.90;;;;;;1556765;75;700;-65
2023/04/06 02:22:44;;;;;;;;;;;20.10;41.00;;;;;;1558132;75;706;-66
2023/04/06 02:24:46;;;;;;;;;;;20.10;41.00;;;;;;1550264;75;1131;-65
2023/04/06 02:26:48;;;;;;;;;;;20.20;41.00;;;;;;1545291;75;715;-65
2023/04/06 02:28:50;;;;;;;;;;;20.10;41.00;;;;;;1563346;75;714;-64
2023/04/06 02:30:52;;;;;;;;;;;20.10;40.90;;;;;;1560483;75;785;-67
2023/04/06 02:32:54;;;;;;;;;;;20.10;40.90;;;;;;1552992;75;1673;-66
2023/04/06 02:34:56;;;;;;;;;;;20.10;41.00;;;;;;1535373;75;1929;-65
2023/04/06 02:36:58;;;;;;;;;;;20.10;40.90;;;;;;1562603;75;725;-65
2023/04/06 02:39:00;;;;;;;;;;;20.10;40.90;;;;;;1563995;75;675;-64
2023/04/06 02:41:02;;;;;;;;;;;20.10;40.90;;;;;;1558135;75;766;-64
2023/04/06 02:43:04;;;;;;;;;;;20.10;40.90;;;;;;1549031;75;1156;-65
2023/04/06 02:45:06;;;;;;;;;;;20.10;40.90;;;;;;1559303;75;1331;-66
2023/04/06 02:47:08;;;;;;;;;;;20.10;41.00;;;;;;1561947;75;783;-65
2023/04/06 02:49:10;;;;;;;;;;;20.10;40.90;;;;;;1555933;75;725;-65
2023/04/06 02:51:12;;;;;;;;;;;20.10;40.90;;;;;;1560305;75;771;-65
2023/04/06 02:53:13;;;;;;;;;;;20.10;40.90;;;;;;1542217;75;1952;-65
2023/04/06 02:55:15;;;;;;;;;;;20.10;40.90;;;;;;1543083;75;815;-65
2023/04/06 02:57:17;;;;;;;;;;;20.10;40.80;;;;;;1545578;75;701;-66
2023/04/06 02:59:19;;;;;;;;;;;20.10;40.90;;;;;;1557818;75;1507;-70
2023/04/06 03:01:21;;;;;;;;;;;20.10;40.90;;;;;;1540346;75;737;-66
2023/04/06 03:03:23;;;;;;;;;;;20.10;40.90;;;;;;1568712;75;1149;-66
2023/04/06 03:05:25;;;;;;;;;;;20.10;40.90;;;;;;1554214;75;765;-65
2023/04/06 03:07:27;;;;;;;;;;;20.10;40.90;;;;;;1550646;75;757;-65
2023/04/06 03:09:29;;;;;;;;;;;20.20;40.90;;;;;;1547977;75;729;-64
2023/04/06 03:11:31;;;;;;;;;;;20.10;40.90;;;;;;1554602;75;609;-65
2023/04/06 03:13:32;;;;;;;;;;;20.10;40.90;;;;;;1544483;75;1955;-64
2023/04/06 03:15:34;;;;;;;;;;;20.10;41.00;;;;;;1563571;75;722;-65
2023/04/06 03:17:36;;;;;;;;;;;20.10;40.90;;;;;;1559179;75;757;-65
2023/04/06 03:19:38;;;;;;;;;;;20.10;40.90;;;;;;1553020;75;727;-65
2023/04/06 03:21:41;;;;;;;;;;;20.10;40.90;;;;;;1551354;75;741;-65
2023/04/06 03:23:43;;;;;;;;;;;20.10;40.90;;;;;;1561290;75;1130;-65
2023/04/06 03:25:45;;;;;;;;;;;20.10;40.90;;;;;;1559620;75;626;-65
2023/04/06 03:27:47;;;;;;;;;;;20.10;41.00;;;;;;1548359;75;1278;-65
2023/04/06 03:29:49;;;;;;;;;;;20.00;40.80;;;;;;1558334;75;709;-65
2023/04/06 03:31:50;;;;;;;;;;;20.00;40.80;;;;;;1541956;75;781;-64
2023/04/06 03:33:52;;;;;;;;;;;20.00;40.80;;;;;;1547877;75;1926;-64
2023/04/06 03:35:54;;;;;;;;;;;20.10;40.90;;;;;;1547814;75;887;-65
2023/04/06 03:37:57;;;;;;;;;;;20.10;40.90;;;;;;1557331;75;749;-65
2023/04/06 03:39:59;;;;;;;;;;;20.10;40.90;;;;;;1541641;75;690;-65
2023/04/06 03:42:01;;;;;;;;;;;20.10;41.00;;;;;;1557082;75;1553;-65
2023/04/06 03:44:03;;;;;;;;;;;20.10;41.00;;;;;;1547698;75;1130;-65
2023/04/06 03:46:05;;;;;;;;;;;20.10;41.00;;;;;;1544926;75;738;-65
2023/04/06 03:48:07;;;;;;;;;;;20.00;40.80;;;;;;1548707;75;719;-64
2023/04/06 03:50:09;;;;;;;;;;;20.00;40.80;;;;;;1550965;75;743;-65
2023/04/06 03:52:11;;;;;;;;;;;20.10;41.00;;;;;;1543771;75;724;-66
2023/04/06 03:54:13;;;;;;;;;;;20.00;40.80;;;;;;1551894;75;1944;-66
2023/04/06 03:56:15;;;;;;;;;;;20.00;40.80;;;;;;1554314;75;1598;-66
2023/04/06 03:58:17;;;;;;;;;;;20.00;40.80;;;;;;1548519;75;692;-65
2023/04/06 04:00:19;;;;;;;;;;;20.00;40.80;;;;;;1553495;75;713;-65
2023/04/06 04:02:20;;;;;;;;;;;20.10;40.90;;;;;;1562816;75;696;-64
2023/04/06 04:04:22;;;;;;;;;;;20.00;40.80;;;;;;1559304;75;1118;-65
2023/04/06 04:06:25;;;;;;;;;;;20.10;40.90;;;;;;1558866;75;739;-64
2023/04/06 04:08:27;;;;;;;;;;;20.00;40.80;;;;;;1541817;75;708;-65
2023/04/06 04:10:28;;;;;;;;;;;20.00;40.80;;;;;;1563919;75;1517;-65
2023/04/06 04:12:30;;;;;;;;;;;20.10;41.00;;;;;;1549884;75;705;-65
2023/04/06 04:14:32;;;;;;;;;;;20.00;40.80;;;;;;1541148;75;1968;-65
2023/04/06 04:16:34;;;;;;;;;;;20.10;40.90;;;;;;1534110;75;796;-65
2023/04/06 04:18:36;;;;;;;;;;;20.10;40.90;;;;;;1542273;75;716;-65
2023/04/06 04:20:38;;;;;;;;;;;20.10;41.00;;;;;;1549100;75;713;-64
2023/04/06 04:22:40;;;;;;;;;;;20.10;41.00;;;;;;1535361;75;738;-64
2023/04/06 04:24:42;;;;;;;;;;;20.10;41.00;;;;;;1547335;75;1554;-65
2023/04/06 04:26:44;;;;;;;;;;;20.00;40.90;;;;;;1556431;75;692;-65
2023/04/06 04:28:46;;;;;;;;;;;19.80;41.10;;;;;;1538799;75;688;-65
2023/04/06 04:30:48;;;;;;;;;;;19.80;41.40;;;;;;1554080;75;807;-64
2023/04/06 04:32:50;;;;;;;;;;;19.70;41.70;;;;;;1553250;76;589;-70
2023/04/06 04:34:52;;;;;;;;;;;19.60;41.80;;;;;;1561584;75;1932;-64
2023/04/06 04:36:54;;;;;;;;;;;19.60;41.90;;;;;;1564696;75;656;-65
2023/04/06 04:38:56;;;;;;;;;;;19.50;42.00;;;;;;1534589;75;1400;-65
2023/04/06 04:40:58;;;;;;;;;;;19.50;42.00;;;;;;1551424;75;743;-64
2023/04/06 04:43:00;;;;;;;;;;;19.40;42.10;;;;;;1541602;75;704;-65
2023/04/06 04:45:02;;;;;;;;;;;19.50;42.20;;;;;;1551132;75;884;-65
2023/04/06 04:47:04;;;;;;;;;;;19.50;42.10;;;;;;1555690;75;679;-65
2023/04/06 04:49:06;;;;;;;;;;;19.40;42.10;;;;;;1541254;75;799;-64
2023/04/06 04:51:08;;;;;;;;;;;19.50;42.30;;;;;;1544590;75;741;-65
2023/04/06 04:53:09;;;;;;;;;;;19.50;42.10;;;;;;1563262;75;1777;-66
2023/04/06 04:55:11;;;;;;;;;;;19.50;42.30;;;;;;1555413;75;1928;-65
2023/04/06 04:57:13;;;;;;;;;;;19.60;42.10;;;;;;1566102;75;706;-64
2023/04/06 04:59:16;;;;;;;;;;;19.80;42.00;;;;;;1556814;75;650;-64
2023/04/06 05:01:18;;;;;;;;;;;19.90;41.90;;;;;;1556429;76;733;-64
2023/04/06 05:03:23;;;;;;;;;;;19.90;41.60;;;;;;1557886;75;1144;-65
2023/04/06 05:05:25;;;;;;;;;;;19.90;41.50;;;;;;1550443;75;696;-64
2023/04/06 05:07:27;;;;;;;;;;;20.00;41.40;;;;;;1556029;75;1653;-66
2023/04/06 05:09:31;;;;;;;;;;;20.10;41.30;;;;;;1551450;75;738;-65
2023/04/06 05:11:33;;;;;;;;;;;20.20;41.30;;;;;;1553135;75;696;-66
2023/04/06 05:13:35;;;;;;;;;;;20.10;41.20;;;;;;1541237;75;1152;-66
2023/04/06 05:15:41;;;;;;;;;;;20.20;41.10;;;;;;1560938;75;1922;-64
2023/04/06 05:17:40;;;;;;;;;;;20.30;41.10;;;;;;1546884;75;964;-66
2023/04/06 05:19:42;;;;;;;;;;;20.40;41.10;;;;;;1543907;75;740;-66
2023/04/06 05:21:44;;;;;;;;;;;20.50;41.20;;;;;;1553389;75;1704;-64
2023/04/06 05:23:46;;;;;;;;;;;20.90;41.40;;;;;;1556690;75;1134;-64
2023/04/06 05:25:48;;;;;;;;;;;21.20;41.50;;;;;;1546416;75;697;-65
2023/04/06 05:27:50;;;;;;;;;;;21.70;41.20;;;;;;1561661;75;749;-65
2023/04/06 05:29:52;;;;;;;;;;;22.10;40.50;;;;;;1552484;75;719;-65
2023/04/06 05:31:54;;;;;;;;;;;22.50;39.70;;;;;;1543204;75;836;-65
2023/04/06 05:33:56;;;;;;;;;;;22.90;38.90;;;;;;1560609;75;1624;-65
2023/04/06 05:36:00;;;;;;;;;;;23.20;37.70;;;;;;1565221;75;1939;-65
2023/04/06 05:38:02;;;;;;;;;;;23.50;37.10;;;;;;1536346;75;1129;-64
2023/04/06 05:40:04;;;;;;;;;;;23.60;36.00;;;;;;1537091;75;567;-64
2023/04/06 05:42:06;;;;;;;;;;;23.60;35.30;;;;;;1557087;75;672;-64
2023/04/06 05:44:10;;;;;;;;;;;23.70;34.40;;;;;;1542058;75;1142;-64
2023/04/06 05:46:11;;;;;;;;;;;23.60;33.70;;;;;;1553569;75;901;-64
2023/04/06 05:48:13;;;;;;;;;;;23.20;33.80;;;;;;1558897;75;1541;-65
2023/04/06 05:50:15;;;;;;;;;;;22.80;34.20;;;;;;1559842;75;729;-65
2023/04/06 05:52:17;;;;;;;;;;;22.60;34.80;;;;;;1555590;75;704;-65
2023/04/06 05:54:19;;;;;;;;;;;22.40;35.50;;;;;;1561928;75;1954;-64
2023/04/06 05:56:21;;;;;;;;;;;22.30;35.80;;;;;;1558842;75;767;-64
2023/04/06 05:58:23;;;;;;;;;;;22.10;35.70;;;;;;1562638;75;683;-65
2023/04/06 06:00:26;;;;;;;;;;;22.00;35.90;;;;;;1559613;75;698;-65
2023/04/06 06:02:27;;;;;;;;;;;21.90;36.20;;;;;;1544776;75;1472;-64
2023/04/06 06:04:30;;;;;;;;;;;21.90;36.60;;;;;;1541897;75;1145;-64
2023/04/06 06:06:32;;;;;;;;;;;21.90;36.80;;;;;;1558694;75;753;-66
2023/04/06 06:08:34;;;;;;;;;;;21.80;36.90;;;;;;1546673;75;740;-64
2023/04/06 06:10:36;;;;;;;;;;;21.70;36.90;;;;;;1540982;75;718;-64
2023/04/06 06:12:38;;;;;;;;;;;21.70;37.00;;;;;;1560560;75;737;-65
2023/04/06 06:14:40;;;;;;;;;;;21.60;37.10;;;;;;1552592;75;1932;-65
2023/04/06 06:16:41;;;;;;;;;;;21.60;37.10;;;;;;1545326;75;1305;-64
2023/04/06 06:18:43;;;;;;;;;;;21.50;37.30;;;;;;1545184;75;605;-64
2023/04/06 06:20:45;;;;;;;;;;;21.50;37.40;;;;;;1547426;75;693;-65
2023/04/06 06:22:47;;;;;;;;;;;21.50;37.50;;;;;;1564482;75;603;-65
2023/04/06 06:24:50;;;;;;;;;;;21.40;37.40;;;;;;1552859;75;1126;-64
2023/04/06 06:26:52;;;;;;;;;;;21.40;37.50;;;;;;1560526;75;730;-64
2023/04/06 06:28:54;;;;;;;;;;;21.30;37.60;;;;;;1547285;75;578;-65
2023/04/06 06:30:56;;;;;;;;;;;21.30;37.70;;;;;;1549519;75;1537;-67
2023/04/06 06:32:58;;;;;;;;;;;21.30;37.80;;;;;;1555185;75;811;-65
2023/04/06 06:35:00;;;;;;;;;;;21.30;37.80;;;;;;1560199;75;1943;-64
2023/04/06 06:37:02;;;;;;;;;;;21.20;37.70;;;;;;1562683;76;564;-64
2023/04/06 06:39:04;;;;;;;;;;;21.20;37.80;;;;;;1522689;76;766;-64
2023/04/06 06:41:06;;;;;;;;;;;21.20;37.90;;;;;;1489775;78;619;-64
2023/04/06 06:43:08;;;;;;;;;;;21.10;38.00;;;;;;1477780;78;1141;-64
2023/04/06 06:45:10;;;;;;;;;;;21.10;38.10;;;;;;1514264;76;1524;-65
2023/04/06 06:47:12;;;;;;;;;;;21.10;38.10;;;;;;1517769;77;749;-64
2023/04/06 06:49:14;;;;;;;;;;;21.10;38.50;;;;;;1499423;78;710;-65
2023/04/06 06:51:16;;;;;;;;;;;21.20;39.30;;;;;;1518879;77;831;-64
2023/04/06 06:53:18;;;;;;;;;;;21.20;39.60;;;;;;1500805;77;1110;-65
2023/04/06 06:55:19;;;;;;;;;;;21.20;39.70;;;;;;1491159;79;1929;-64
2023/04/06 06:57:21;;;;;;;;;;;21.30;39.80;;;;;;1514305;77;670;-64
2023/04/06 06:59:23;;;;;;;;;;;21.40;39.70;;;;;;1505880;77;1582;-64
2023/04/06 07:01:25;;;;;;;;;;;21.50;39.70;;;;;;1510320;77;738;-65
2023/04/06 07:03:27;;;;;;;;;;;21.50;39.40;;;;;;1511564;77;1133;-66
2023/04/06 07:05:29;;;;;;;;;;;21.60;39.10;;;;;;1514316;77;736;-66
2023/04/06 07:07:32;;;;;;;;;;;21.50;38.90;;;;;;1502521;77;662;-66
2023/04/06 07:09:34;;;;;;;;;;;21.40;38.40;;;;;;1513428;77;827;-70
2023/04/06 07:11:36;;;;;;;;;;;21.40;38.30;;;;;;1490719;77;727;-65
2023/04/06 07:13:38;;;;;;;;;;;21.50;38.30;;;;;;1491986;78;1634;-65
2023/04/06 07:15:40;;;;;;;;;;;21.50;38.20;;;;;;1519897;76;1929;-65
2023/04/06 07:17:44;;;;;;;;;;;21.40;38.10;;;;;;1500082;77;704;-66
2023/04/06 07:19:45;;;;;;;;;;;21.50;38.20;;;;;;1517917;77;1163;-64
2023/04/06 07:21:49;;;;;;;;;;;21.50;38.10;;;;;;1481582;78;740;-65
2023/04/06 07:23:51;;;;;;;;;;;21.60;38.10;;;;;;1487111;78;1127;-65
2023/04/06 07:25:54;;;;;;;;;;;21.60;37.90;;;;;;1540609;75;722;-65
2023/04/06 07:27:56;;;;;;;;;;;21.60;38.00;;;;;;1567832;75;1470;-65
2023/04/06 07:29:58;;;;;;;;;;;21.60;37.90;;;;;;1553548;75;714;-65
2023/04/06 07:32:00;;;;;;;;;;;21.60;38.00;;;;;;1533133;75;726;-65
2023/04/06 07:34:02;;;;;;;;;;;21.60;37.90;;;;;;1548726;75;1141;-65
2023/04/06 07:36:04;;;;;;;;;;;21.60;37.80;;;;;;1559606;75;1953;-64
2023/04/06 07:38:06;;;;;;;;;;;21.60;37.80;;;;;;1560424;75;706;-65
2023/04/06 07:40:08;;;;;;;;;;;21.70;38.00;;;;;;1551380;75;715;-65
2023/04/06 07:42:10;;;;;;;;;;;21.70;38.00;;;;;;1552770;75;1649;-65
2023/04/06 07:44:12;;;;;;;;;;;21.80;37.80;;;;;;1556852;75;1173;-65
2023/04/06 07:46:14;;;;;;;;;;;21.80;37.90;;;;;;1554141;75;647;-66
2023/04/06 07:48:16;;;;;;;;;;;21.80;37.80;;;;;;1554299;75;711;-65
2023/04/06 07:50:18;;;;;;;;;;;21.80;37.80;;;;;;1557067;75;716;-67
2023/04/06 07:52:20;;;;;;;;;;;21.80;37.80;;;;;;1552076;75;522;-66
2023/04/06 07:54:22;;;;;;;;;;;21.80;37.70;;;;;;1541491;75;1138;-65
2023/04/06 07:56:23;;;;;;;;;;;21.80;37.70;;;;;;1551425;75;1938;-66
2023/04/06 07:58:25;;;;;;;;;;;21.80;37.90;;;;;;1555658;75;749;-64
2023/04/06 08:00:27;;;;;;;;;;;21.80;37.70;;;;;;1561372;75;663;-65
2023/04/06 08:02:29;;;;;;;;;;;21.70;37.70;;;;;;1558241;75;695;-64
2023/04/06 08:04:31;;;;;;;;;;;21.70;37.90;;;;;;1560026;75;1115;-64
2023/04/06 08:06:34;;;;;;;;;;;21.70;38.00;;;;;;1563056;75;721;-65
2023/04/06 08:08:36;;;;;;;;;;;21.60;37.90;;;;;;1538610;75;1546;-65
2023/04/06 08:10:37;;;;;;;;;;;21.60;37.90;;;;;;1533084;75;739;-65
2023/04/06 08:12:39;;;;;;;;;;;21.70;38.00;;;;;;1559578;75;716;-65
2023/04/06 08:14:41;;;;;;;;;;;21.60;38.00;;;;;;1545485;75;1136;-65
2023/04/06 08:16:43;;;;;;;;;;;21.60;38.00;;;;;;1558793;75;1938;-65
2023/04/06 08:18:45;;;;;;;;;;;21.60;38.00;;;;;;1537745;75;699;-65
2023/04/06 08:20:48;;;;;;;;;;;21.60;38.10;;;;;;1549876;75;648;-66
2023/04/06 08:22:50;;;;;;;;;;;21.50;38.20;;;;;;1551287;75;1555;-65
2023/04/06 08:24:52;;;;;;;;;;;21.50;38.20;;;;;;1561831;75;1121;-65
2023/04/06 08:26:54;;;;;;;;;;;21.60;38.20;;;;;;1548986;75;744;-65
2023/04/06 08:28:56;;;;;;;;;;;21.60;38.10;;;;;;1548576;75;711;-65
2023/04/06 08:30:58;;;;;;;;;;;21.60;38.10;;;;;;1557895;75;691;-64
2023/04/06 08:33:00;;;;;;;;;;;21.60;37.90;;;;;;1556914;75;815;-64
2023/04/06 08:35:01;;;;;;;;;;;21.70;38.00;;;;;;1555382;75;1084;-64
2023/04/06 08:37:04;;;;;;;;;;;21.70;38.00;;;;;;1551214;75;1923;-65
2023/04/06 08:39:06;;;;;;;;;;;21.70;37.90;;;;;;1563069;75;769;-65
2023/04/06 08:41:09;;;;;;;;;;;21.70;38.00;;;;;;1556847;75;737;-64
2023/04/06 08:43:13;;;;;;;;;;;21.70;38.00;;;;;;1554644;75;1220;-65
2023/04/06 08:45:15;;;;;;;;;;;21.70;38.00;;;;;;1558636;75;669;-65
2023/04/06 08:47:17;;;;;;;;;;;21.70;38.00;;;;;;1550645;75;796;-65
2023/04/06 08:49:19;;;;;;;;;;;21.80;37.80;;;;;;1557883;75;740;-66
2023/04/06 08:51:21;;;;;;;;;;;21.70;37.90;;;;;;1549979;75;1533;-64
2023/04/06 08:53:23;;;;;;;;;;;21.80;37.80;;;;;;1548574;75;1098;-65
2023/04/06 08:55:24;;;;;;;;;;;21.80;37.80;;;;;;1557602;75;1948;-65
2023/04/06 08:57:26;;;;;;;;;;;21.70;37.80;;;;;;1550172;75;750;-65
2023/04/06 08:59:28;;;;;;;;;;;21.70;37.80;;;;;;1561244;75;706;-64
2023/04/06 09:01:30;;;;;;;;;;;21.70;37.90;;;;;;1556021;75;691;-65
2023/04/06 09:03:32;;;;;;;;;;;21.70;37.80;;;;;;1558142;75;1149;-65
2023/04/06 09:05:34;;;;;;;;;;;21.80;37.70;;;;;;1547336;75;1536;-65
2023/04/06 09:07:36;;;;;;;;;;;21.80;37.80;;;;;;1544580;75;712;-65
2023/04/06 09:09:43;;;;;;;;;;;21.80;37.80;;;;;;1538593;75;774;-70
2023/04/06 09:11:48;;;;;;;;;;;21.90;37.70;;;;;;1553731;75;987;-65
2023/04/06 09:13:52;;;;;;;;;;;22.00;37.60;;;;;;1527172;75;1122;-65
2023/04/06 09:16:01;;;;;;;;;;;22.00;37.60;;;;;;1553043;75;1938;-65
2023/04/06 09:18:03;;;;;;;;;;;22.00;37.50;;;;;;1546261;75;703;-64
2023/04/06 09:20:05;;;;;;;;;;;21.90;37.50;;;;;;1526904;76;1600;-65
2023/04/06 09:22:10;;;;;;;;;;;21.90;37.50;;;;;;1546169;75;748;-64
2023/04/06 09:24:12;;;;;;;;;;;21.90;37.50;;;;;;1556020;75;1157;-65
2023/04/06 09:26:14;;;;;;;;;;;22.00;37.50;;;;;;1549311;75;701;-64
2023/04/06 09:28:16;;;;;;;;;;;22.00;37.50;;;;;;1557442;75;779;-65
2023/04/06 09:30:18;;;;;;;;;;;22.00;37.40;;;;;;1548512;75;730;-65
2023/04/06 09:32:20;;;;;;;;;;;22.00;37.40;;;;;;1550680;75;722;-70
2023/04/06 09:34:23;;;;;;;;;;;22.00;37.40;;;;;;1540849;75;1551;-65
2023/04/06 09:36:31;;;;;;;;;;;22.00;37.40;;;;;;1556279;75;1919;-65
2023/04/06 09:38:33;;;;;;;;;;;22.00;37.40;;;;;;1541985;75;691;-65
2023/04/06 09:40:35;;;;;;;;;;;22.00;37.30;;;;;;1544757;75;715;-65
2023/04/06 09:42:37;;;;;;;;;;;22.00;37.30;;;;;;1544465;75;742;-65
2023/04/06 09:44:39;;;;;;;;;;;22.00;37.30;;;;;;1549193;75;1164;-64
2023/04/06 09:46:41;;;;;;;;;;;22.10;37.40;;;;;;1558154;75;803;-65
2023/04/06 09:48:43;;;;;;;;;;;22.00;37.30;;;;;;1543830;75;1693;-64
2023/04/06 09:50:45;;;;;;;;;;;22.00;37.30;;;;;;1537309;75;724;-64
2023/04/06 09:52:49;;;;;;;;;;;22.10;37.40;;;;;;1548068;75;733;-64
2023/04/06 09:54:51;;;;;;;;;;;22.00;37.30;;;;;;1551915;75;1105;-64
2023/04/06 09:56:58;;;;;;;;;;;22.00;37.30;;;;;;1533096;75;1959;-64
2023/04/06 09:59:03;;;;;;;;;;;22.00;37.30;;;;;;1570906;75;648;-65
2023/04/06 10:01:12;;;;;;;;;;;22.00;37.30;;;;;;1531774;75;1547;-65
2023/04/06 10:03:28;;;;;;;;;;;22.00;37.30;;;;;;1543807;75;1062;-65
2023/04/06 10:05:38;;;;;;;;;;;22.00;37.30;;;;;;1541025;75;705;-64
2023/04/06 10:07:40;;;;;;;;;;;21.90;37.40;;;;;;1559271;75;602;-64
2023/04/06 10:09:41;;;;;;;;;;;21.90;37.50;;;;;;1555637;76;710;-65
2023/04/06 10:11:43;;;;;;;;;;;21.90;37.50;;;;;;1560681;75;662;-65
2023/04/06 10:13:47;;;;;;;;;;;21.90;37.50;;;;;;1519802;78;1170;-64
2023/04/06 10:15:49;;;;;;;;;;;21.90;37.50;;;;;;1516998;77;1303;-65
2023/04/06 10:17:51;;;;;;;;;;;21.90;37.60;;;;;;1499796;77;747;-65
2023/04/06 10:19:54;;;;;;;;;;;21.90;37.50;;;;;;1507766;77;721;-64
2023/04/06 10:21:56;;;;;;;;;;;21.90;37.50;;;;;;1521889;77;813;-64
2023/04/06 10:24:02;;;;;;;;;;;21.90;37.50;;;;;;1522600;77;1118;-71
2023/04/06 10:26:04;;;;;;;;;;;21.90;37.60;;;;;;1520887;77;833;-65
2023/04/06 10:28:06;;;;;;;;;;;21.80;37.50;;;;;;1511762;78;749;-65
2023/04/06 10:30:08;;;;;;;;;;;21.80;37.50;;;;;;1520530;77;1556;-65
2023/04/06 10:32:10;;;;;;;;;;;21.80;37.50;;;;;;1511394;78;705;-65
2023/04/06 10:34:12;;;;;;;;;;;21.80;37.50;;;;;;1519129;77;1147;-65
2023/04/06 10:36:15;;;;;;;;;;;21.80;37.50;;;;;;1512589;77;1903;-65
2023/04/06 10:38:21;;;;;;;;;;;21.80;37.50;;;;;;1510159;77;669;-66
2023/04/06 10:40:21;;;;;;;;;;;21.80;37.50;;;;;;1478373;78;1120;-64
2023/04/06 10:42:26;;;;;;;;;;;21.80;37.50;;;;;;1508707;76;746;-65
2023/04/06 10:44:27;;;;;;;;;;;21.80;37.50;;;;;;1496642;78;1618;-65
2023/04/06 10:46:30;;;;;;;;;;;21.80;37.60;;;;;;1484256;78;568;-64
2023/04/06 10:48:39;;;;;;;;;;;21.80;37.60;;;;;;1559093;75;735;-64
2023/04/06 10:50:46;;;;;;;;;;;21.80;37.60;;;;;;1546025;75;698;-65
2023/04/06 10:52:48;;;;;;;;;;;21.80;37.60;;;;;;1547739;75;1157;-64
2023/04/06 10:54:50;;;;;;;;;;;21.70;37.60;;;;;;1527903;76;1140;-64
2023/04/06 10:56:52;;;;;;;;;;;21.70;37.60;;;;;;1551998;75;1970;-64
2023/04/06 10:58:55;;;;;;;;;;;21.70;37.60;;;;;;1557030;75;1286;-65
2023/04/06 11:00:57;;;;;;;;;;;21.70;37.70;;;;;;1547175;75;602;-64
2023/04/06 11:03:02;;;;;;;;;;;21.70;37.70;;;;;;1557608;75;710;-63
2023/04/06 11:05:04;;;;;;;;;;;21.70;37.70;;;;;;1562963;75;713;-64
2023/04/06 11:07:06;;;;;;;;;;;21.70;37.70;;;;;;1565170;75;716;-64
2023/04/06 11:09:08;;;;;;;;;;;21.60;37.60;;;;;;1550719;75;727;-65
2023/04/06 11:11:21;;;;;;;;;;;21.70;37.80;;;;;;1558662;75;697;-65
2023/04/06 11:13:23;;;;;;;;;;;21.60;37.70;;;;;;1559095;75;1189;-65
2023/04/06 11:15:25;;;;;;;;;;;21.60;37.80;;;;;;1540902;75;683;-64
2023/04/06 11:17:28;;;;;;;;;;;21.50;37.90;;;;;;1555569;75;1920;-64
2023/04/06 11:19:30;;;;;;;;;;;21.60;37.90;;;;;;1559966;75;970;-65
2023/04/06 11:21:39;;;;;;;;;;;21.60;37.90;;;;;;1529154;76;952;-65
2023/04/06 11:23:41;;;;;;;;;;;21.50;37.90;;;;;;1554968;75;1139;-64
2023/04/06 11:25:45;;;;;;;;;;;21.50;37.90;;;;;;1547257;75;1546;-64
2023/04/06 11:27:47;;;;;;;;;;;21.50;37.90;;;;;;1543861;75;1029;-65
2023/04/06 11:29:49;;;;;;;;;;;21.50;38.00;;;;;;1558398;75;733;-66
2023/04/06 11:31:52;;;;;;;;;;;21.40;37.90;;;;;;1555870;75;742;-64
2023/04/06 11:33:59;;;;;;;;;;;21.50;38.10;;;;;;1558802;75;1117;-68
2023/04/06 11:36:01;;;;;;;;;;;21.50;38.10;;;;;;1550659;75;756;-65
2023/04/06 11:38:04;;;;;;;;;;;21.50;38.10;;;;;;1542188;75;1940;-65
2023/04/06 11:40:07;;;;;;;;;;;21.40;38.00;;;;;;1560147;75;1503;-66
2023/04/06 11:42:09;;;;;;;;;;;21.40;38.00;;;;;;1561689;75;741;-65
2023/04/06 11:44:11;;;;;;;;;;;21.40;38.10;;;;;;1563073;75;1136;-65
2023/04/06 11:46:15;;;;;;;;;;;21.40;38.00;;;;;;1542064;75;723;-66
2023/04/06 11:48:20;;;;;;;;;;;21.30;38.10;;;;;;1565423;75;1135;-64
2023/04/06 11:50:22;;;;;;;;;;;21.40;38.20;;;;;;1549679;75;741;-64
2023/04/06 11:52:24;;;;;;;;;;;21.40;38.20;;;;;;1549172;75;700;-66
2023/04/06 11:54:37;;;;;;;;;;;21.30;38.30;;;;;;1542659;75;1632;-65
2023/04/06 11:56:39;;;;;;;;;;;21.40;38.20;;;;;;1546336;75;1895;-65
2023/04/06 11:58:40;;;;;;;;;;;21.40;38.30;;;;;;1564056;75;628;-64
2023/04/06 12:00:45;;;;;;;;;;;21.40;38.30;;;;;;1559616;75;713;-64
2023/04/06 12:02:47;;;;;;;;;;;21.40;38.20;;;;;;1553523;75;693;-69
2023/04/06 12:04:49;;;;;;;;;;;21.30;38.30;;;;;;1556693;75;1129;-64
2023/04/06 12:06:51;;;;;;;;;;;21.40;38.30;;;;;;1535741;75;633;-66
2023/04/06 12:08:53;;;;;;;;;;;21.30;38.30;;;;;;1548401;75;1510;-65